sensor_id;sensor_type;location;lat;lon;timestamp;pressure;altitude;pressure_sealevel;temperature;humidity
3096;BME280;1558;42.700;23.360;2023-07-09T00:01:57;95680.94;;;21.73;63.43
3096;BME280;1558;42.700;23.360;2023-07-09T00:04:25;95679.75;;;21.81;63.55
3096;BME280;1558;42.700;23.360;2023-07-09T00:06:55;95673.50;;;21.63;63.73
3096;BME280;1558;42.700;23.360;2023-07-09T00:09:27;95671.16;;;21.65;63.99
3096;BME280;1558;42.700;23.360;2023-07-09T00:11:55;95670.34;;;21.68;64.04
3096;BME280;1558;42.700;23.360;2023-07-09T00:14:23;95664.06;;;21.78;63.73
3096;BME280;1558;42.700;23.360;2023-07-09T00:16:51;95672.69;;;21.84;63.53
3096;BME280;1558;42.700;23.360;2023-07-09T00:19:22;95667.63;;;21.89;63.54
3096;BME280;1558;42.700;23.360;2023-07-09T00:21:51;95667.59;;;22.10;64.34
3096;BME280;1558;42.700;23.360;2023-07-09T00:24:21;95662.75;;;22.50;62.70
3096;BME280;1558;42.700;23.360;2023-07-09T00:26:49;95660.88;;;22.18;61.59
3096;BME280;1558;42.700;23.360;2023-07-09T00:29:18;95669.56;;;21.99;62.38
3096;BME280;1558;42.700;23.360;2023-07-09T00:31:46;95669.16;;;21.83;62.46
3096;BME280;1558;42.700;23.360;2023-07-09T00:34:15;95665.25;;;21.77;63.18
3096;BME280;1558;42.700;23.360;2023-07-09T00:36:46;95665.63;;;21.76;62.55
3096;BME280;1558;42.700;23.360;2023-07-09T00:39:15;95578.59;;;21.23;62.86
3096;BME280;1558;42.700;23.360;2023-07-09T00:41:45;95446.94;;;20.46;62.60
3096;BME280;1558;42.700;23.360;2023-07-09T00:44:24;95660.16;;;21.69;63.10
3096;BME280;1558;42.700;23.360;2023-07-09T00:47:18;95666.03;;;21.78;62.91
3096;BME280;1558;42.700;23.360;2023-07-09T00:49:59;95657.00;;;21.67;62.85
3096;BME280;1558;42.700;23.360;2023-07-09T00:52:33;95659.38;;;21.65;62.82
3096;BME280;1558;42.700;23.360;2023-07-09T00:55:06;95605.28;;;21.30;63.00
3096;BME280;1558;42.700;23.360;2023-07-09T00:57:36;95656.25;;;21.55;63.25
3096;BME280;1558;42.700;23.360;2023-07-09T01:00:10;95657.03;;;21.63;63.42
3096;BME280;1558;42.700;23.360;2023-07-09T01:02:44;95664.84;;;21.75;62.90
3096;BME280;1558;42.700;23.360;2023-07-09T01:05:16;95651.91;;;21.79;63.53
3096;BME280;1558;42.700;23.360;2023-07-09T01:07:48;95657.03;;;21.84;63.27
3096;BME280;1558;42.700;23.360;2023-07-09T01:10:17;95647.22;;;21.80;62.98
3096;BME280;1558;42.700;23.360;2023-07-09T01:12:48;95650.72;;;21.77;63.28
3096;BME280;1558;42.700;23.360;2023-07-09T01:15:17;95663.28;;;21.56;63.45
3096;BME280;1558;42.700;23.360;2023-07-09T01:17:45;95661.72;;;21.38;64.92
3096;BME280;1558;42.700;23.360;2023-07-09T01:20:17;95667.13;;;21.03;66.54
3096;BME280;1558;42.700;23.360;2023-07-09T01:22:51;95642.34;;;20.60;68.35
3096;BME280;1558;42.700;23.360;2023-07-09T01:25:21;95655.97;;;20.32;69.86
3096;BME280;1558;42.700;23.360;2023-07-09T01:27:50;95645.75;;;20.29;71.32
3096;BME280;1558;42.700;23.360;2023-07-09T01:30:21;95647.31;;;20.30;71.81
3096;BME280;1558;42.700;23.360;2023-07-09T01:32:50;95646.47;;;20.19;73.00
3096;BME280;1558;42.700;23.360;2023-07-09T01:35:20;95645.56;;;19.97;73.60
3096;BME280;1558;42.700;23.360;2023-07-09T01:37:50;95658.06;;;19.91;74.80
3096;BME280;1558;42.700;23.360;2023-07-09T01:40:20;95669.06;;;19.98;75.47
3096;BME280;1558;42.700;23.360;2023-07-09T01:42:58;95627.38;;;19.65;76.10
3096;BME280;1558;42.700;23.360;2023-07-09T01:45:28;95657.88;;;19.63;77.30
3096;BME280;1558;42.700;23.360;2023-07-09T01:47:56;95669.91;;;19.51;78.42
3096;BME280;1558;42.700;23.360;2023-07-09T01:50:24;95670.50;;;19.34;79.40
3096;BME280;1558;42.700;23.360;2023-07-09T01:52:55;95674.69;;;19.21;80.15
3096;BME280;1558;42.700;23.360;2023-07-09T01:55:24;95670.69;;;19.12;81.50
3096;BME280;1558;42.700;23.360;2023-07-09T01:57:52;95676.09;;;19.05;82.18
3096;BME280;1558;42.700;23.360;2023-07-09T02:00:20;95664.56;;;18.85;82.70
3096;BME280;1558;42.700;23.360;2023-07-09T02:02:48;95679.78;;;18.82;84.20
3096;BME280;1558;42.700;23.360;2023-07-09T02:05:18;95635.50;;;18.70;84.68
3096;BME280;1558;42.700;23.360;2023-07-09T02:07:47;95676.06;;;19.01;84.30
3096;BME280;1558;42.700;23.360;2023-07-09T02:10:17;95677.53;;;18.95;84.02
3096;BME280;1558;42.700;23.360;2023-07-09T02:12:46;95684.38;;;18.75;84.71
3096;BME280;1558;42.700;23.360;2023-07-09T02:15:15;95681.16;;;18.66;85.38
3096;BME280;1558;42.700;23.360;2023-07-09T02:17:43;95681.19;;;18.69;86.41
3096;BME280;1558;42.700;23.360;2023-07-09T02:20:12;95672.41;;;18.53;86.77
3096;BME280;1558;42.700;23.360;2023-07-09T02:22:42;95675.09;;;18.50;87.22
3096;BME280;1558;42.700;23.360;2023-07-09T02:25:10;95679.28;;;18.44;87.35
3096;BME280;1558;42.700;23.360;2023-07-09T02:27:40;95648.34;;;18.03;88.23
3096;BME280;1558;42.700;23.360;2023-07-09T02:30:08;95692.53;;;18.12;89.28
3096;BME280;1558;42.700;23.360;2023-07-09T02:32:38;95689.88;;;18.15;90.10
3096;BME280;1558;42.700;23.360;2023-07-09T02:35:07;95688.59;;;18.09;91.31
3096;BME280;1558;42.700;23.360;2023-07-09T02:37:35;95688.84;;;18.27;91.74
3096;BME280;1558;42.700;23.360;2023-07-09T02:40:05;95694.69;;;18.25;91.46
3096;BME280;1558;42.700;23.360;2023-07-09T02:42:33;95695.44;;;18.26;91.96
3096;BME280;1558;42.700;23.360;2023-07-09T02:45:04;95685.63;;;18.21;91.96
3096;BME280;1558;42.700;23.360;2023-07-09T02:47:32;95696.75;;;18.36;91.73
3096;BME280;1558;42.700;23.360;2023-07-09T02:50:01;95707.91;;;18.23;91.84
3096;BME280;1558;42.700;23.360;2023-07-09T02:52:29;95705.97;;;17.98;91.75
3096;BME280;1558;42.700;23.360;2023-07-09T02:54:57;95703.84;;;18.10;92.82
3096;BME280;1558;42.700;23.360;2023-07-09T02:57:26;95711.38;;;18.20;93.79
3096;BME280;1558;42.700;23.360;2023-07-09T02:59:54;95710.94;;;18.18;93.22
3096;BME280;1558;42.700;23.360;2023-07-09T03:02:23;95716.84;;;18.47;94.34
3096;BME280;1558;42.700;23.360;2023-07-09T03:04:51;95713.59;;;18.71;93.26
3096;BME280;1558;42.700;23.360;2023-07-09T03:07:19;95725.88;;;18.87;91.99
3096;BME280;1558;42.700;23.360;2023-07-09T03:09:47;95722.88;;;18.96;91.46
3096;BME280;1558;42.700;23.360;2023-07-09T03:12:15;95721.16;;;19.18;91.36
3096;BME280;1558;42.700;23.360;2023-07-09T03:14:47;95731.78;;;19.26;89.64
3096;BME280;1558;42.700;23.360;2023-07-09T03:17:15;95688.34;;;18.81;89.50
3096;BME280;1558;42.700;23.360;2023-07-09T03:19:45;95723.16;;;18.87;89.55
3096;BME280;1558;42.700;23.360;2023-07-09T03:22:13;95723.44;;;18.46;89.21
3096;BME280;1558;42.700;23.360;2023-07-09T03:24:41;95724.94;;;18.13;90.95
3096;BME280;1558;42.700;23.360;2023-07-09T03:27:09;95736.19;;;18.08;92.64
3096;BME280;1558;42.700;23.360;2023-07-09T03:29:37;95720.94;;;18.07;93.00
3096;BME280;1558;42.700;23.360;2023-07-09T03:32:06;95723.53;;;17.97;93.54
3096;BME280;1558;42.700;23.360;2023-07-09T03:34:34;95725.72;;;17.88;94.16
3096;BME280;1558;42.700;23.360;2023-07-09T03:37:04;95735.78;;;18.06;94.91
3096;BME280;1558;42.700;23.360;2023-07-09T03:39:32;95725.81;;;18.21;94.32
3096;BME280;1558;42.700;23.360;2023-07-09T03:42:00;95724.59;;;18.18;93.90
3096;BME280;1558;42.700;23.360;2023-07-09T03:44:28;95731.38;;;18.28;94.60
3096;BME280;1558;42.700;23.360;2023-07-09T03:46:56;95729.72;;;18.50;93.20
3096;BME280;1558;42.700;23.360;2023-07-09T03:49:24;95726.34;;;18.60;93.12
3096;BME280;1558;42.700;23.360;2023-07-09T03:51:52;95736.06;;;18.87;92.91
3096;BME280;1558;42.700;23.360;2023-07-09T03:54:21;95729.97;;;19.04;92.80
3096;BME280;1558;42.700;23.360;2023-07-09T03:56:53;95738.13;;;19.34;92.02
3096;BME280;1558;42.700;23.360;2023-07-09T03:59:21;95738.13;;;19.34;90.61
3096;BME280;1558;42.700;23.360;2023-07-09T04:01:49;95733.03;;;19.32;89.88
3096;BME280;1558;42.700;23.360;2023-07-09T04:04:17;95739.91;;;19.19;89.25
3096;BME280;1558;42.700;23.360;2023-07-09T04:06:47;95739.06;;;19.12;90.52
3096;BME280;1558;42.700;23.360;2023-07-09T04:09:15;95742.50;;;19.05;89.49
3096;BME280;1558;42.700;23.360;2023-07-09T04:11:45;95748.69;;;18.99;89.73
3096;BME280;1558;42.700;23.360;2023-07-09T04:14:13;95729.81;;;18.90;89.22
3096;BME280;1558;42.700;23.360;2023-07-09T04:16:41;95754.84;;;19.25;89.59
3096;BME280;1558;42.700;23.360;2023-07-09T04:19:09;95761.94;;;19.33;89.03
3096;BME280;1558;42.700;23.360;2023-07-09T04:21:38;95749.81;;;19.31;88.44
3096;BME280;1558;42.700;23.360;2023-07-09T04:24:06;95758.91;;;19.38;87.94
3096;BME280;1558;42.700;23.360;2023-07-09T04:26:34;95756.00;;;19.24;87.25
3096;BME280;1558;42.700;23.360;2023-07-09T04:29:08;95763.00;;;19.22;87.32
3096;BME280;1558;42.700;23.360;2023-07-09T04:31:36;95756.75;;;19.21;87.24
3096;BME280;1558;42.700;23.360;2023-07-09T04:34:05;95748.34;;;19.04;87.43
3096;BME280;1558;42.700;23.360;2023-07-09T04:36:33;95761.97;;;19.00;87.67
3096;BME280;1558;42.700;23.360;2023-07-09T04:39:02;95730.34;;;18.66;87.76
3096;BME280;1558;42.700;23.360;2023-07-09T04:41:30;95750.34;;;18.73;88.88
3096;BME280;1558;42.700;23.360;2023-07-09T04:43:58;95771.38;;;19.03;89.09
3096;BME280;1558;42.700;23.360;2023-07-09T04:46:27;95770.19;;;19.00;88.48
3096;BME280;1558;42.700;23.360;2023-07-09T04:48:56;95746.06;;;18.76;88.29
3096;BME280;1558;42.700;23.360;2023-07-09T04:51:24;95757.13;;;18.86;88.56
3096;BME280;1558;42.700;23.360;2023-07-09T04:53:53;95767.69;;;18.88;89.46
3096;BME280;1558;42.700;23.360;2023-07-09T04:56:21;95761.44;;;18.87;89.56
3096;BME280;1558;42.700;23.360;2023-07-09T04:58:49;95749.91;;;18.71;90.04
3096;BME280;1558;42.700;23.360;2023-07-09T05:01:18;95770.66;;;19.09;90.82
3096;BME280;1558;42.700;23.360;2023-07-09T05:03:47;95772.66;;;19.45;90.13
3096;BME280;1558;42.700;23.360;2023-07-09T05:06:16;95760.63;;;19.57;88.60
3096;BME280;1558;42.700;23.360;2023-07-09T05:08:44;95780.69;;;19.68;87.83
3096;BME280;1558;42.700;23.360;2023-07-09T05:11:12;95768.34;;;19.88;87.66
3096;BME280;1558;42.700;23.360;2023-07-09T05:13:40;95773.22;;;20.12;86.50
3096;BME280;1558;42.700;23.360;2023-07-09T05:16:08;95775.72;;;20.32;85.84
3096;BME280;1558;42.700;23.360;2023-07-09T05:18:37;95777.56;;;20.75;84.42
3096;BME280;1558;42.700;23.360;2023-07-09T05:21:06;95784.81;;;21.32;82.72
3096;BME280;1558;42.700;23.360;2023-07-09T05:23:34;95788.50;;;21.96;80.55
3096;BME280;1558;42.700;23.360;2023-07-09T05:26:21;95776.28;;;22.33;78.31
3096;BME280;1558;42.700;23.360;2023-07-09T05:28:50;95772.69;;;22.78;77.13
3096;BME280;1558;42.700;23.360;2023-07-09T05:31:18;95760.78;;;23.09;75.28
3096;BME280;1558;42.700;23.360;2023-07-09T05:33:46;95772.50;;;23.20;74.04
3096;BME280;1558;42.700;23.360;2023-07-09T05:36:15;95776.19;;;23.69;74.15
3096;BME280;1558;42.700;23.360;2023-07-09T05:38:45;95767.56;;;24.18;72.48
3096;BME280;1558;42.700;23.360;2023-07-09T05:41:14;95764.53;;;24.46;70.22
3096;BME280;1558;42.700;23.360;2023-07-09T05:43:43;95720.41;;;24.46;68.35
3096;BME280;1558;42.700;23.360;2023-07-09T05:46:13;95766.22;;;25.72;65.38
3096;BME280;1558;42.700;23.360;2023-07-09T05:48:41;95768.75;;;26.59;61.96
3096;BME280;1558;42.700;23.360;2023-07-09T05:51:09;95775.94;;;27.38;59.61
3096;BME280;1558;42.700;23.360;2023-07-09T05:53:39;95767.16;;;27.20;57.21
3096;BME280;1558;42.700;23.360;2023-07-09T05:56:07;95747.50;;;27.86;55.54
3096;BME280;1558;42.700;23.360;2023-07-09T05:58:35;95755.25;;;28.27;54.42
3096;BME280;1558;42.700;23.360;2023-07-09T06:01:03;95756.91;;;27.57;52.48
3096;BME280;1558;42.700;23.360;2023-07-09T06:03:31;95758.84;;;27.20;54.48
3096;BME280;1558;42.700;23.360;2023-07-09T06:06:00;95767.94;;;27.21;52.55
3096;BME280;1558;42.700;23.360;2023-07-09T06:08:29;95771.06;;;26.41;53.96
3096;BME280;1558;42.700;23.360;2023-07-09T06:11:00;95764.69;;;27.06;54.57
3096;BME280;1558;42.700;23.360;2023-07-09T06:13:29;95762.84;;;27.39;52.31
3096;BME280;1558;42.700;23.360;2023-07-09T06:15:59;95757.44;;;27.68;52.70
3096;BME280;1558;42.700;23.360;2023-07-09T06:18:28;95762.53;;;28.37;51.32
3096;BME280;1558;42.700;23.360;2023-07-09T06:20:59;95757.81;;;28.50;50.52
3096;BME280;1558;42.700;23.360;2023-07-09T06:23:29;95753.41;;;28.37;50.58
3096;BME280;1558;42.700;23.360;2023-07-09T06:25:59;95764.66;;;29.07;49.85
3096;BME280;1558;42.700;23.360;2023-07-09T06:28:28;95758.06;;;29.01;48.40
3096;BME280;1558;42.700;23.360;2023-07-09T06:30:57;95755.56;;;28.77;48.61
3096;BME280;1558;42.700;23.360;2023-07-09T06:33:26;95761.66;;;28.56;48.87
3096;BME280;1558;42.700;23.360;2023-07-09T06:35:55;95750.28;;;28.96;48.52
3096;BME280;1558;42.700;23.360;2023-07-09T06:38:24;95732.88;;;29.49;47.32
3096;BME280;1558;42.700;23.360;2023-07-09T06:40:52;95757.34;;;29.54;46.54
3096;BME280;1558;42.700;23.360;2023-07-09T06:43:22;95755.78;;;29.40;45.90
3096;BME280;1558;42.700;23.360;2023-07-09T06:45:55;95751.72;;;28.88;47.23
3096;BME280;1558;42.700;23.360;2023-07-09T06:48:25;95751.44;;;29.11;47.06
3096;BME280;1558;42.700;23.360;2023-07-09T06:50:54;95743.03;;;29.81;47.42
3096;BME280;1558;42.700;23.360;2023-07-09T06:53:23;95762.47;;;30.44;45.30
3096;BME280;1558;42.700;23.360;2023-07-09T06:55:51;95758.69;;;30.12;44.72
3096;BME280;1558;42.700;23.360;2023-07-09T06:58:23;95724.91;;;29.76;45.02
3096;BME280;1558;42.700;23.360;2023-07-09T07:00:52;95758.38;;;30.70;44.16
3096;BME280;1558;42.700;23.360;2023-07-09T07:03:21;95758.34;;;30.48;44.32
3096;BME280;1558;42.700;23.360;2023-07-09T07:05:52;95753.72;;;31.23;43.35
3096;BME280;1558;42.700;23.360;2023-07-09T07:08:22;95752.88;;;31.13;42.85
3096;BME280;1558;42.700;23.360;2023-07-09T07:10:54;95754.00;;;31.16;42.95
3096;BME280;1558;42.700;23.360;2023-07-09T07:13:30;95680.34;;;31.04;41.30
3096;BME280;1558;42.700;23.360;2023-07-09T07:15:59;95738.22;;;31.00;40.19
3096;BME280;1558;42.700;23.360;2023-07-09T07:18:28;95746.63;;;30.53;42.03
3096;BME280;1558;42.700;23.360;2023-07-09T07:20:56;95752.81;;;30.10;43.10
3096;BME280;1558;42.700;23.360;2023-07-09T07:23:24;95750.16;;;29.94;42.85
3096;BME280;1558;42.700;23.360;2023-07-09T07:25:52;95745.34;;;29.57;43.68
3096;BME280;1558;42.700;23.360;2023-07-09T07:28:21;95735.28;;;29.34;43.94
3096;BME280;1558;42.700;23.360;2023-07-09T07:30:59;95734.88;;;30.37;42.81
3096;BME280;1558;42.700;23.360;2023-07-09T07:33:28;95743.34;;;29.95;42.15
3096;BME280;1558;42.700;23.360;2023-07-09T07:35:56;95713.19;;;30.06;41.79
3096;BME280;1558;42.700;23.360;2023-07-09T07:38:27;95738.63;;;30.77;41.94
3096;BME280;1558;42.700;23.360;2023-07-09T07:40:55;95728.47;;;31.26;40.79
3096;BME280;1558;42.700;23.360;2023-07-09T07:43:23;95728.03;;;31.50;40.76
3096;BME280;1558;42.700;23.360;2023-07-09T07:45:51;95726.06;;;31.90;40.13
3096;BME280;1558;42.700;23.360;2023-07-09T07:48:21;95706.03;;;31.52;39.09
3096;BME280;1558;42.700;23.360;2023-07-09T07:50:49;95719.34;;;31.78;39.22
3096;BME280;1558;42.700;23.360;2023-07-09T07:53:18;95730.31;;;31.73;39.10
3096;BME280;1558;42.700;23.360;2023-07-09T07:55:46;95740.31;;;30.15;39.05
3096;BME280;1558;42.700;23.360;2023-07-09T07:58:14;95739.53;;;30.40;39.58
3096;BME280;1558;42.700;23.360;2023-07-09T08:00:42;95727.47;;;30.77;38.63
3096;BME280;1558;42.700;23.360;2023-07-09T08:03:11;95719.88;;;30.56;38.81
3096;BME280;1558;42.700;23.360;2023-07-09T08:05:41;95698.38;;;30.56;38.73
3096;BME280;1558;42.700;23.360;2023-07-09T08:08:09;95714.69;;;31.01;39.62
3096;BME280;1558;42.700;23.360;2023-07-09T08:10:38;95723.28;;;31.59;38.67
3096;BME280;1558;42.700;23.360;2023-07-09T08:13:06;95726.31;;;31.00;38.97
3096;BME280;1558;42.700;23.360;2023-07-09T08:15:34;95721.22;;;30.86;39.19
3096;BME280;1558;42.700;23.360;2023-07-09T08:18:02;95722.22;;;30.79;39.28
3096;BME280;1558;42.700;23.360;2023-07-09T08:20:30;95710.88;;;31.38;38.70
3096;BME280;1558;42.700;23.360;2023-07-09T08:23:01;95710.84;;;31.29;38.05
3096;BME280;1558;42.700;23.360;2023-07-09T08:25:29;95711.91;;;31.01;38.85
3096;BME280;1558;42.700;23.360;2023-07-09T08:27:57;95710.59;;;32.07;37.38
3096;BME280;1558;42.700;23.360;2023-07-09T08:30:25;95687.22;;;32.23;37.54
3096;BME280;1558;42.700;23.360;2023-07-09T08:32:53;95712.50;;;32.19;37.43
3096;BME280;1558;42.700;23.360;2023-07-09T08:35:22;95706.59;;;32.17;37.30
3096;BME280;1558;42.700;23.360;2023-07-09T08:38:03;95713.25;;;31.71;37.44
3096;BME280;1558;42.700;23.360;2023-07-09T08:40:31;95709.22;;;31.72;38.06
3096;BME280;1558;42.700;23.360;2023-07-09T08:43:08;95714.72;;;31.54;38.99
3096;BME280;1558;42.700;23.360;2023-07-09T08:45:45;95706.44;;;31.81;38.34
3096;BME280;1558;42.700;23.360;2023-07-09T08:48:22;95698.22;;;32.17;38.67
3096;BME280;1558;42.700;23.360;2023-07-09T08:50:55;95706.59;;;32.17;38.94
3096;BME280;1558;42.700;23.360;2023-07-09T08:53:33;95703.97;;;32.23;38.38
3096;BME280;1558;42.700;23.360;2023-07-09T08:56:03;95716.09;;;32.29;37.82
3096;BME280;1558;42.700;23.360;2023-07-09T08:58:36;95708.19;;;32.45;38.53
3096;BME280;1558;42.700;23.360;2023-07-09T09:01:14;95703.59;;;32.97;37.09
3096;BME280;1558;42.700;23.360;2023-07-09T09:03:48;95704.56;;;31.99;38.59
3096;BME280;1558;42.700;23.360;2023-07-09T09:06:20;95713.53;;;32.61;37.97
3096;BME280;1558;42.700;23.360;2023-07-09T09:08:58;95709.50;;;32.81;38.43
3096;BME280;1558;42.700;23.360;2023-07-09T09:11:39;95710.94;;;34.05;35.48
3096;BME280;1558;42.700;23.360;2023-07-09T09:14:22;95707.88;;;32.43;36.29
3096;BME280;1558;42.700;23.360;2023-07-09T09:16:51;95707.88;;;32.34;38.16
3096;BME280;1558;42.700;23.360;2023-07-09T09:19:23;95703.91;;;32.81;36.96
3096;BME280;1558;42.700;23.360;2023-07-09T09:21:58;95706.75;;;33.68;36.21
3096;BME280;1558;42.700;23.360;2023-07-09T09:24:36;95662.59;;;32.57;36.05
3096;BME280;1558;42.700;23.360;2023-07-09T09:27:07;95692.41;;;32.51;37.10
3096;BME280;1558;42.700;23.360;2023-07-09T09:29:36;95684.34;;;32.53;37.54
3096;BME280;1558;42.700;23.360;2023-07-09T09:32:19;95700.66;;;32.64;36.67
3096;BME280;1558;42.700;23.360;2023-07-09T09:34:50;95689.13;;;32.62;37.25
3096;BME280;1558;42.700;23.360;2023-07-09T09:37:25;95699.09;;;32.63;37.37
3096;BME280;1558;42.700;23.360;2023-07-09T09:39:56;95680.00;;;32.70;35.26
3096;BME280;1558;42.700;23.360;2023-07-09T09:42:42;95600.69;;;31.34;37.58
3096;BME280;1558;42.700;23.360;2023-07-09T09:45:14;95686.13;;;32.20;37.87
3096;BME280;1558;42.700;23.360;2023-07-09T09:47:43;95686.16;;;32.93;36.79
3096;BME280;1558;42.700;23.360;2023-07-09T09:50:14;95682.78;;;32.70;36.58
3096;BME280;1558;42.700;23.360;2023-07-09T09:52:45;95661.88;;;31.99;37.50
3096;BME280;1558;42.700;23.360;2023-07-09T09:55:19;95683.41;;;32.56;37.78
3096;BME280;1558;42.700;23.360;2023-07-09T09:57:48;95683.09;;;32.82;36.87
3096;BME280;1558;42.700;23.360;2023-07-09T10:00:17;95669.56;;;32.98;37.09
3096;BME280;1558;42.700;23.360;2023-07-09T10:02:46;95674.44;;;33.49;35.76
3096;BME280;1558;42.700;23.360;2023-07-09T10:05:15;95678.88;;;32.95;36.62
3096;BME280;1558;42.700;23.360;2023-07-09T10:07:50;95658.56;;;33.64;35.40
3096;BME280;1558;42.700;23.360;2023-07-09T10:10:24;95675.44;;;34.58;33.89
3096;BME280;1558;42.700;23.360;2023-07-09T10:13:02;95668.38;;;33.92;35.12
3096;BME280;1558;42.700;23.360;2023-07-09T10:15:42;95659.78;;;32.85;34.78
3096;BME280;1558;42.700;23.360;2023-07-09T10:18:31;95664.47;;;32.51;36.60
3096;BME280;1558;42.700;23.360;2023-07-09T10:21:06;95656.81;;;33.15;35.47
3096;BME280;1558;42.700;23.360;2023-07-09T10:23:41;95670.84;;;33.57;35.06
3096;BME280;1558;42.700;23.360;2023-07-09T10:26:16;95670.38;;;32.81;35.34
3096;BME280;1558;42.700;23.360;2023-07-09T10:29:09;95661.34;;;33.04;35.43
3096;BME280;1558;42.700;23.360;2023-07-09T10:31:50;95659.47;;;32.92;35.47
3096;BME280;1558;42.700;23.360;2023-07-09T10:34:27;95662.53;;;33.30;34.40
3096;BME280;1558;42.700;23.360;2023-07-09T10:37:13;95649.81;;;32.38;35.85
3096;BME280;1558;42.700;23.360;2023-07-09T10:39:48;95661.06;;;32.56;35.70
3096;BME280;1558;42.700;23.360;2023-07-09T10:42:24;95652.75;;;33.16;34.61
3096;BME280;1558;42.700;23.360;2023-07-09T10:44:58;95649.97;;;34.24;33.74
3096;BME280;1558;42.700;23.360;2023-07-09T10:47:33;95659.00;;;33.62;33.13
3096;BME280;1558;42.700;23.360;2023-07-09T10:50:05;95662.56;;;32.39;34.34
3096;BME280;1558;42.700;23.360;2023-07-09T10:52:39;95647.66;;;32.78;34.13
3096;BME280;1558;42.700;23.360;2023-07-09T10:55:15;95653.28;;;33.57;33.56
3096;BME280;1558;42.700;23.360;2023-07-09T10:57:51;95646.38;;;33.25;33.70
3096;BME280;1558;42.700;23.360;2023-07-09T11:00:31;95644.97;;;33.95;33.10
3096;BME280;1558;42.700;23.360;2023-07-09T11:03:04;95646.22;;;33.70;32.12
3096;BME280;1558;42.700;23.360;2023-07-09T11:05:34;95639.31;;;33.38;33.20
3096;BME280;1558;42.700;23.360;2023-07-09T11:08:04;95630.13;;;33.47;33.20
3096;BME280;1558;42.700;23.360;2023-07-09T11:10:36;95641.16;;;33.83;32.77
3096;BME280;1558;42.700;23.360;2023-07-09T11:13:19;95652.19;;;33.45;33.31
3096;BME280;1558;42.700;23.360;2023-07-09T11:15:56;95650.16;;;33.04;33.93
3096;BME280;1558;42.700;23.360;2023-07-09T11:18:29;95645.34;;;33.04;33.29
3096;BME280;1558;42.700;23.360;2023-07-09T11:21:00;95644.78;;;33.33;33.10
3096;BME280;1558;42.700;23.360;2023-07-09T11:23:38;95642.25;;;33.86;34.03
3096;BME280;1558;42.700;23.360;2023-07-09T11:26:12;95645.78;;;33.12;33.06
3096;BME280;1558;42.700;23.360;2023-07-09T11:28:54;95602.34;;;32.29;33.60
3096;BME280;1558;42.700;23.360;2023-07-09T11:31:24;95622.06;;;32.53;34.03
3096;BME280;1558;42.700;23.360;2023-07-09T11:34:08;95644.84;;;32.06;34.48
3096;BME280;1558;42.700;23.360;2023-07-09T11:36:47;95642.56;;;31.74;34.63
3096;BME280;1558;42.700;23.360;2023-07-09T11:39:20;95599.38;;;32.05;35.23
3096;BME280;1558;42.700;23.360;2023-07-09T11:41:49;95622.69;;;32.75;34.47
3096;BME280;1558;42.700;23.360;2023-07-09T11:44:20;95620.81;;;32.45;34.14
3096;BME280;1558;42.700;23.360;2023-07-09T11:46:54;95628.09;;;32.97;33.82
3096;BME280;1558;42.700;23.360;2023-07-09T11:49:44;95629.16;;;33.59;33.40
3096;BME280;1558;42.700;23.360;2023-07-09T11:52:18;95635.84;;;33.85;32.91
3096;BME280;1558;42.700;23.360;2023-07-09T11:54:48;95624.78;;;33.67;33.54
3096;BME280;1558;42.700;23.360;2023-07-09T11:57:18;95613.81;;;33.78;32.57
3096;BME280;1558;42.700;23.360;2023-07-09T11:59:48;95627.34;;;32.78;33.95
3096;BME280;1558;42.700;23.360;2023-07-09T12:02:18;95622.50;;;32.97;34.51
3096;BME280;1558;42.700;23.360;2023-07-09T12:04:48;95621.16;;;32.56;34.50
3096;BME280;1558;42.700;23.360;2023-07-09T12:07:18;95617.22;;;32.17;34.37
3096;BME280;1558;42.700;23.360;2023-07-09T12:09:49;95603.44;;;32.23;35.23
3096;BME280;1558;42.700;23.360;2023-07-09T12:12:20;95615.06;;;32.85;35.09
3096;BME280;1558;42.700;23.360;2023-07-09T12:14:50;95613.22;;;32.72;34.41
3096;BME280;1558;42.700;23.360;2023-07-09T12:17:23;95595.69;;;32.45;35.36
3096;BME280;1558;42.700;23.360;2023-07-09T12:19:52;95611.03;;;32.49;35.41
3096;BME280;1558;42.700;23.360;2023-07-09T12:22:21;95605.16;;;32.56;34.71
3096;BME280;1558;42.700;23.360;2023-07-09T12:24:50;95606.41;;;32.28;35.46
3096;BME280;1558;42.700;23.360;2023-07-09T12:27:21;95613.81;;;32.40;35.39
3096;BME280;1558;42.700;23.360;2023-07-09T12:29:54;95600.81;;;32.37;35.14
3096;BME280;1558;42.700;23.360;2023-07-09T12:32:23;95607.66;;;32.54;35.58
3096;BME280;1558;42.700;23.360;2023-07-09T12:34:55;95607.28;;;31.98;36.52
3096;BME280;1558;42.700;23.360;2023-07-09T12:37:25;95601.63;;;31.62;36.27
3096;BME280;1558;42.700;23.360;2023-07-09T12:39:55;95576.34;;;31.65;36.05
3096;BME280;1558;42.700;23.360;2023-07-09T12:42:29;95599.25;;;31.51;36.89
3096;BME280;1558;42.700;23.360;2023-07-09T12:44:59;95599.00;;;31.36;37.23
3096;BME280;1558;42.700;23.360;2023-07-09T12:47:28;95585.25;;;31.42;37.10
3096;BME280;1558;42.700;23.360;2023-07-09T12:50:02;95581.72;;;31.51;37.23
3096;BME280;1558;42.700;23.360;2023-07-09T12:52:31;95596.69;;;31.84;36.93
3096;BME280;1558;42.700;23.360;2023-07-09T12:55:02;95587.66;;;31.62;36.55
3096;BME280;1558;42.700;23.360;2023-07-09T12:57:30;95538.94;;;31.44;37.30
3096;BME280;1558;42.700;23.360;2023-07-09T13:00:18;95577.81;;;32.06;37.16
3096;BME280;1558;42.700;23.360;2023-07-09T13:02:53;95591.78;;;31.17;37.64
3096;BME280;1558;42.700;23.360;2023-07-09T13:05:24;95587.53;;;31.34;38.17
3096;BME280;1558;42.700;23.360;2023-07-09T13:07:54;95585.66;;;31.31;37.90
3096;BME280;1558;42.700;23.360;2023-07-09T13:10:24;95580.69;;;31.66;37.88
3096;BME280;1558;42.700;23.360;2023-07-09T13:12:57;95582.78;;;32.20;36.92
3096;BME280;1558;42.700;23.360;2023-07-09T13:15:30;95583.72;;;32.53;35.90
3096;BME280;1558;42.700;23.360;2023-07-09T13:18:00;95585.22;;;33.74;34.50
3096;BME280;1558;42.700;23.360;2023-07-09T13:20:30;95581.78;;;33.47;34.31
3096;BME280;1558;42.700;23.360;2023-07-09T13:22:59;95579.88;;;33.20;34.08
3096;BME280;1558;42.700;23.360;2023-07-09T13:25:27;95586.97;;;34.19;33.88
3096;BME280;1558;42.700;23.360;2023-07-09T13:28:16;95593.69;;;33.89;32.67
3096;BME280;1558;42.700;23.360;2023-07-09T13:30:46;95596.47;;;32.54;35.01